| time (UTC) | temp F | wind direction | speed MPH | gust MPH | rain 1hr in | rain 24hr in | rain mn in | humidity % | barometer mb |
| 20260502180641 | 47 | 304 | 5.0 | 8.0 | 0.00 | 0.00 | 0.00 | 54 | 1013.1 |
| 20260502180138 | 47 | 304 | 5.0 | 8.0 | 0.00 | 0.00 | 0.00 | 54 | 1013.1 |
| 20260502164049 | 45 | 266 | 9.0 | 10.0 | 0.00 | 0.00 | 0.00 | 57 | 1014.1 |
| 20260502163545 | 45 | 287 | 8.0 | 10.0 | 0.00 | 0.00 | 0.00 | 58 | 1014.1 |
| 20260502163042 | 45 | 265 | 6.0 | 10.0 | 0.00 | 0.00 | 0.00 | 59 | 1014.1 |
| 20260502162539 | 46 | 274 | 13.0 | 17.0 | 0.00 | 0.00 | 0.00 | 58 | 1014.5 |
| 20260502162036 | 46 | 275 | 10.0 | 15.0 | 0.00 | 0.00 | 0.00 | 58 | 1014.1 |
| 20260502161533 | 46 | 292 | 6.0 | 8.0 | 0.00 | 0.00 | 0.00 | 57 | 1014.1 |
| 20260502161031 | 46 | 277 | 11.0 | 13.0 | 0.00 | 0.00 | 0.00 | 55 | 1014.5 |
| 20260502160528 | 46 | 276 | 9.0 | 13.0 | 0.00 | 0.00 | 0.00 | 57 | 1014.5 |
| 20260502151929 | 46 | 332 | 9.0 | 10.0 | 0.00 | 0.00 | 0.00 | 57 | 1014.8 |
| 20260502151426 | 46 | 284 | 17.0 | 23.0 | 0.00 | 0.00 | 0.00 | 56 | 1015.1 |
| 20260502150923 | 46 | 277 | 15.0 | 17.0 | 0.00 | 0.00 | 0.00 | 55 | 1015.1 |
| 20260502150420 | 45 | 287 | 16.0 | 20.0 | 0.00 | 0.00 | 0.00 | 56 | 1015.1 |
| 20260502130306 | 42 | 258 | 7.0 | 10.0 | 0.00 | 0.00 | 0.00 | 57 | 1017.2 |
| 20260502123751 | 42 | 253 | 8.0 | 10.0 | 0.00 | 0.00 | 0.00 | 57 | 1017.2 |
| 20260502123248 | 41 | 304 | 7.0 | 10.0 | 0.00 | 0.00 | 0.00 | 58 | 1017.5 |
| 20260502122745 | 41 | 244 | 9.0 | 10.0 | 0.00 | 0.00 | 0.00 | 57 | 1017.5 |
| 20260502122241 | 41 | 267 | 10.0 | 13.0 | 0.00 | 0.00 | 0.00 | 58 | 1017.5 |
| 20260502121739 | 41 | 287 | 6.0 | 8.0 | 0.00 | 0.00 | 0.00 | 58 | 1017.5 |
| 20260502121237 | 41 | 252 | 12.0 | 15.0 | 0.00 | 0.00 | 0.00 | 58 | 1017.5 |
| 20260502120733 | 41 | 307 | 6.0 | 8.0 | 0.00 | 0.00 | 0.00 | 58 | 1017.5 |
| 20260502120230 | 41 | 260 | 6.0 | 8.0 | 0.00 | 0.00 | 0.00 | 58 | 1017.5 |
| 20260502115728 | 40 | 247 | 5.0 | 8.0 | 0.00 | 0.00 | 0.00 | 55 | 1017.5 |
| 20260502115224 | 40 | 199 | 8.0 | 10.0 | 0.00 | 0.00 | 0.00 | 56 | 1017.8 |
| 20260502114720 | 40 | 250 | 9.0 | 13.0 | 0.00 | 0.00 | 0.00 | 57 | 1017.8 |
| 20260502114218 | 40 | 231 | 5.0 | 8.0 | 0.00 | 0.00 | 0.00 | 55 | 1017.8 |
| 20260502113715 | 40 | 240 | 6.0 | 8.0 | 0.00 | 0.00 | 0.00 | 54 | 1017.8 |
| 20260502113213 | 40 | 243 | 6.0 | 8.0 | 0.00 | 0.00 | 0.00 | 56 | 1017.8 |
| 20260502112710 | 40 | 204 | 6.0 | 8.0 | 0.00 | 0.00 | 0.00 | 57 | 1017.8 |
| 20260502112208 | 40 | 229 | 6.0 | 8.0 | 0.00 | 0.00 | 0.00 | 55 | 1017.8 |
| 20260502111705 | 40 | 216 | 7.0 | 8.0 | 0.00 | 0.00 | 0.00 | 55 | 1018.2 |
| 20260502111202 | 40 | 233 | 12.0 | 15.0 | 0.00 | 0.00 | 0.00 | 54 | 1018.2 |
| 20260502110700 | 40 | 260 | 6.0 | 8.0 | 0.00 | 0.00 | 0.00 | 56 | 1018.2 |
| 20260502110157 | 40 | 258 | 9.0 | 10.0 | 0.00 | 0.00 | 0.00 | 55 | 1018.2 |
| 20260502105654 | 40 | 277 | 8.0 | 10.0 | 0.00 | 0.00 | 0.00 | 54 | 1018.2 |
| 20260502105151 | 40 | 294 | 9.0 | 10.0 | 0.00 | 0.00 | 0.00 | 54 | 1018.2 |
| 20260502104648 | 40 | 274 | 8.0 | 10.0 | 0.00 | 0.00 | 0.00 | 53 | 1018.2 |
| 20260502104146 | 40 | 253 | 9.0 | 10.0 | 0.00 | 0.00 | 0.00 | 53 | 1018.5 |
| 20260502103643 | 40 | 256 | 9.0 | 10.0 | 0.00 | 0.00 | 0.00 | 53 | 1018.5 |
| 20260502103141 | 40 | 296 | 8.0 | 10.0 | 0.00 | 0.00 | 0.00 | 53 | 1018.2 |
| 20260502102638 | 40 | 243 | 8.0 | 10.0 | 0.00 | 0.00 | 0.00 | 50 | 1018.2 |
| 20260502102134 | 40 | 222 | 9.0 | 13.0 | 0.00 | 0.00 | 0.00 | 51 | 1018.5 |
| 20260502101632 | 40 | 277 | 6.0 | 8.0 | 0.00 | 0.00 | 0.00 | 52 | 1018.2 |
| 20260502101131 | 40 | 256 | 10.0 | 13.0 | 0.00 | 0.00 | 0.00 | 53 | 1018.5 |
| 20260502100629 | 40 | 263 | 10.0 | 13.0 | 0.00 | 0.00 | 0.00 | 53 | 1018.5 |
| 20260502100127 | 40 | 281 | 6.0 | 8.0 | 0.00 | 0.00 | 0.00 | 53 | 1018.5 |
| 20260502091101 | 39 | 228 | 3.0 | 5.0 | 0.00 | 0.00 | 0.00 | 54 | 1018.9 |
| 20260502090558 | 39 | 186 | 2.0 | 2.0 | 0.00 | 0.00 | 0.00 | 53 | 1018.9 |
| 20260502071458 | 30 | 200 | 2.0 | 2.0 | 0.00 | 0.00 | 0.00 | 52 | 1019.2 |
| 20260502070956 | 30 | 173 | 5.0 | 8.0 | 0.00 | 0.00 | 0.00 | 53 | 1019.5 |
| 20260502070454 | 29 | 154 | 2.0 | 2.0 | 0.00 | 0.00 | 0.00 | 54 | 1019.2 |
| 20260502065952 | 28 | 194 | 3.0 | 5.0 | 0.00 | 0.00 | 0.00 | 56 | 1019.2 |
| 20260502065450 | 27 | 132 | 0.0 | 0.0 | 0.00 | 0.00 | 0.00 | 59 | 1019.5 |
| 20260502064948 | 26 | 139 | 2.0 | 2.0 | 0.00 | 0.00 | 0.00 | 60 | 1019.5 |
| 20260502064446 | 26 | 217 | 0.0 | 0.0 | 0.00 | 0.00 | 0.00 | 60 | 1019.2 |
| 20260502063942 | 25 | 255 | 0.0 | 0.0 | 0.00 | 0.00 | 0.00 | 61 | 1019.5 |
| 20260502063441 | 25 | 197 | 2.0 | 2.0 | 0.00 | 0.00 | 0.00 | 62 | 1019.5 |
| 20260502062938 | 25 | 281 | 0.0 | 0.0 | 0.00 | 0.00 | 0.00 | 64 | 1019.2 |
| 20260502062435 | 25 | 53 | 0.0 | 0.0 | 0.00 | 0.00 | 0.00 | 63 | 1019.2 |
| 20260502061934 | 25 | 337 | 0.0 | 0.0 | 0.00 | 0.00 | 0.00 | 64 | 1019.2 |
| 20260502061431 | 25 | 1 | 0.0 | 0.0 | 0.00 | 0.00 | 0.00 | 63 | 1019.2 |
| 20260502060927 | 25 | 53 | 0.0 | 0.0 | 0.00 | 0.00 | 0.00 | 63 | 1019.2 |
| 20260502060422 | 25 | 299 | 0.0 | 0.0 | 0.00 | 0.00 | 0.00 | 63 | 1019.2 |
| 20260502055919 | 25 | 319 | 0.0 | 0.0 | 0.00 | 0.00 | 0.00 | 63 | 1019.5 |
| 20260502055417 | 25 | 320 | 0.0 | 0.0 | 0.00 | 0.00 | 0.00 | 63 | 1019.2 |
| 20260502054917 | 26 | 320 | 0.0 | 0.0 | 0.00 | 0.00 | 0.00 | 63 | 1019.2 |
| 20260502054414 | 26 | 314 | 0.0 | 0.0 | 0.00 | 0.00 | 0.00 | 63 | 1019.2 |
| 20260502053912 | 26 | 30 | 0.0 | 0.0 | 0.00 | 0.00 | 0.00 | 62 | 1019.2 |
| 20260502053409 | 26 | 61 | 0.0 | 0.0 | 0.00 | 0.00 | 0.00 | 61 | 1019.2 |
| 20260502052906 | 25 | 75 | 0.0 | 0.0 | 0.00 | 0.00 | 0.00 | 60 | 1019.5 |
| 20260502052404 | 25 | 99 | 0.0 | 0.0 | 0.00 | 0.00 | 0.00 | 60 | 1019.5 |
| 20260502051901 | 25 | 128 | 0.0 | 0.0 | 0.00 | 0.00 | 0.00 | 62 | 1019.5 |
| 20260502051400 | 24 | 228 | 1.0 | 2.0 | 0.00 | 0.00 | 0.00 | 62 | 1019.5 |
| 20260502050856 | 24 | 320 | 0.0 | 0.0 | 0.00 | 0.00 | 0.00 | 63 | 1019.5 |
| 20260502050353 | 24 | 326 | 0.0 | 0.0 | 0.00 | 0.00 | 0.00 | 64 | 1019.5 |
| 20260502045850 | 25 | 239 | 0.0 | 0.0 | 0.00 | 0.00 | 0.00 | 63 | 1019.5 |
| 20260502045346 | 25 | 327 | 0.0 | 0.0 | 0.00 | 0.00 | 0.00 | 63 | 1019.9 |
| 20260502044844 | 25 | 29 | 0.0 | 0.0 | 0.00 | 0.00 | 0.00 | 63 | 1019.5 |
| 20260502044339 | 25 | 29 | 0.0 | 0.0 | 0.00 | 0.00 | 0.00 | 63 | 1019.5 |
| 20260502043837 | 26 | 91 | 0.0 | 0.0 | 0.00 | 0.00 | 0.00 | 62 | 1019.5 |
| 20260502043335 | 26 | 63 | 0.0 | 0.0 | 0.00 | 0.00 | 0.00 | 63 | 1019.5 |
| 20260502042834 | 27 | 79 | 0.0 | 0.0 | 0.00 | 0.00 | 0.00 | 62 | 1019.9 |
| 20260502042332 | 27 | 52 | 0.0 | 0.0 | 0.00 | 0.00 | 0.00 | 61 | 1019.9 |
| 20260502041829 | 27 | 262 | 0.0 | 0.0 | 0.00 | 0.00 | 0.00 | 61 | 1019.9 |
| 20260502041326 | 27 | 233 | 0.0 | 0.0 | 0.00 | 0.00 | 0.00 | 62 | 1019.9 |
| 20260502040823 | 27 | 218 | 0.0 | 0.0 | 0.00 | 0.00 | 0.00 | 63 | 1020.2 |
| 20260502040320 | 27 | 217 | 0.0 | 0.0 | 0.00 | 0.00 | 0.00 | 63 | 1019.9 |
| 20260502035816 | 27 | 267 | 0.0 | 0.0 | 0.00 | 0.00 | 0.00 | 62 | 1019.9 |
| 20260502035313 | 27 | 69 | 0.0 | 0.0 | 0.00 | 0.00 | 0.00 | 61 | 1020.2 |
| 20260502034810 | 27 | 338 | 0.0 | 0.0 | 0.00 | 0.00 | 0.00 | 60 | 1019.9 |
| 20260502034308 | 27 | 64 | 1.0 | 2.0 | 0.00 | 0.00 | 0.00 | 59 | 1019.9 |
| 20260502033806 | 27 | 42 | 0.0 | 0.0 | 0.00 | 0.00 | 0.00 | 59 | 1019.9 |
| 20260502033303 | 27 | 45 | 0.0 | 0.0 | 0.00 | 0.00 | 0.00 | 59 | 1019.9 |
| 20260502032800 | 27 | 114 | 0.0 | 0.0 | 0.00 | 0.00 | 0.00 | 58 | 1020.2 |
| 20260502032256 | 27 | 99 | 0.0 | 0.0 | 0.00 | 0.00 | 0.00 | 60 | 1019.9 |
| 20260502031754 | 27 | 21 | 0.0 | 0.0 | 0.00 | 0.00 | 0.00 | 60 | 1019.9 |
| 20260502031252 | 27 | 91 | 0.0 | 0.0 | 0.00 | 0.00 | 0.00 | 61 | 1019.9 |
| 20260502030750 | 27 | 106 | 1.0 | 2.0 | 0.00 | 0.00 | 0.00 | 59 | 1019.9 |
| 20260502030248 | 28 | 76 | 1.0 | 2.0 | 0.00 | 0.00 | 0.00 | 57 | 1019.9 |
| 20260502025745 | 27 | 61 | 2.0 | 2.0 | 0.00 | 0.00 | 0.00 | 57 | 1019.9 |
| 20260502025243 | 27 | 50 | 1.0 | 2.0 | 0.00 | 0.00 | 0.00 | 57 | 1019.9 |
| 20260502024740 | 27 | 68 | 2.0 | 2.0 | 0.00 | 0.00 | 0.00 | 57 | 1019.9 |
| 20260502024238 | 27 | 52 | 2.0 | 2.0 | 0.00 | 0.00 | 0.00 | 57 | 1019.9 |
| 20260502023736 | 27 | 76 | 2.0 | 2.0 | 0.00 | 0.00 | 0.00 | 57 | 1019.9 |
| 20260502023233 | 27 | 56 | 3.0 | 5.0 | 0.00 | 0.00 | 0.00 | 58 | 1019.9 |
| 20260502022731 | 27 | 75 | 2.0 | 2.0 | 0.00 | 0.00 | 0.00 | 59 | 1019.9 |
| 20260502022227 | 27 | 57 | 0.0 | 2.0 | 0.00 | 0.00 | 0.00 | 59 | 1019.9 |
| 20260502021725 | 28 | 75 | 1.0 | 2.0 | 0.00 | 0.00 | 0.00 | 60 | 1020.2 |
| 20260502021222 | 28 | 81 | 2.0 | 2.0 | 0.00 | 0.00 | 0.00 | 58 | 1020.2 |
| 20260502020719 | 29 | 48 | 2.0 | 2.0 | 0.00 | 0.00 | 0.00 | 57 | 1019.9 |
| 20260502020216 | 29 | 84 | 2.0 | 2.0 | 0.00 | 0.00 | 0.00 | 57 | 1019.9 |
| 20260502015714 | 29 | 76 | 2.0 | 2.0 | 0.00 | 0.00 | 0.00 | 55 | 1019.9 |
| 20260502015210 | 29 | 84 | 3.0 | 5.0 | 0.00 | 0.00 | 0.00 | 52 | 1020.2 |
| 20260502014708 | 30 | 73 | 2.0 | 2.0 | 0.00 | 0.00 | 0.00 | 52 | 1019.9 |
| 20260502014204 | 30 | 82 | 2.0 | 2.0 | 0.00 | 0.00 | 0.00 | 53 | 1019.9 |
| 20260502013700 | 29 | 65 | 2.0 | 2.0 | 0.00 | 0.00 | 0.00 | 53 | 1019.9 |
| 20260502013155 | 29 | 70 | 3.0 | 5.0 | 0.00 | 0.00 | 0.00 | 52 | 1019.9 |
| 20260502012653 | 29 | 77 | 2.0 | 5.0 | 0.00 | 0.00 | 0.00 | 53 | 1019.9 |
| 20260502012151 | 29 | 51 | 2.0 | 2.0 | 0.00 | 0.00 | 0.00 | 52 | 1019.9 |
| 20260502011648 | 29 | 62 | 4.0 | 8.0 | 0.00 | 0.00 | 0.00 | 52 | 1020.2 |
| 20260502011143 | 29 | 44 | 0.0 | 2.0 | 0.00 | 0.00 | 0.00 | 55 | 1019.9 |
| 20260502010641 | 29 | 33 | 2.0 | 2.0 | 0.00 | 0.00 | 0.00 | 56 | 1020.2 |
| 20260502010137 | 29 | 70 | 1.0 | 2.0 | 0.00 | 0.00 | 0.00 | 56 | 1020.2 |
| 20260502005635 | 30 | 13 | 1.0 | 2.0 | 0.00 | 0.00 | 0.00 | 57 | 1020.2 |
| 20260502005133 | 30 | 89 | 2.0 | 5.0 | 0.00 | 0.00 | 0.00 | 56 | 1020.2 |
| 20260502004628 | 30 | 53 | 0.0 | 0.0 | 0.00 | 0.00 | 0.00 | 54 | 1020.2 |
| 20260502004125 | 30 | 36 | 1.0 | 2.0 | 0.00 | 0.00 | 0.00 | 55 | 1020.2 |
| 20260502003623 | 30 | 62 | 1.0 | 2.0 | 0.00 | 0.00 | 0.00 | 54 | 1019.9 |
| 20260502003120 | 30 | 69 | 2.0 | 2.0 | 0.00 | 0.00 | 0.00 | 55 | 1020.2 |
| 20260502002616 | 30 | 77 | 3.0 | 5.0 | 0.00 | 0.00 | 0.00 | 54 | 1019.9 |
| 20260502002114 | 30 | 83 | 2.0 | 2.0 | 0.00 | 0.00 | 0.00 | 54 | 1020.2 |
| 20260502001611 | 31 | 58 | 2.0 | 5.0 | 0.00 | 0.00 | 0.00 | 54 | 1020.2 |
| 20260502001108 | 31 | 71 | 5.0 | 8.0 | 0.00 | 0.00 | 0.00 | 54 | 1019.9 |
| 20260502000607 | 31 | 50 | 3.0 | 5.0 | 0.00 | 0.00 | 0.00 | 53 | 1020.2 |
| 20260501235559 | 31 | 54 | 3.0 | 5.0 | 0.00 | 0.00 | 0.00 | 54 | 1019.9 |
| 20260501235055 | 31 | 44 | 0.0 | 2.0 | 0.00 | 0.00 | 0.00 | 54 | 1019.9 |
| 20260501234551 | 31 | 72 | 4.0 | 5.0 | 0.00 | 0.00 | 0.00 | 52 | 1020.2 |